WESTPORT MEDIA Westport In The Media

Enter your "Place, State", US Zip Code or ICAO:  

Nassau Airport, Bahamas

 Lat: 25.05N, Lon: 77.47W
ICAO Used: MYNN
Current Conditions
Updated: 3:00 PM GMT-5 MON SEP 1 2014
Sun & Moon Information
Clouds
Clouds
Temp: 30°C
Humidity: 62%
Wind Speed: SE 9 MPH
Barometer: 1017 mb
Dewpoint: 22°C
Heat Index: 33°C
Wind Chill: 30°C
Civil Twilight: 5:26 AM GMT-5 Moon Phase:
Waxing Gibbous Moon
Sunrise: 5:49 AM GMT-5
Sunset: 6:29 PM GMT-5
Civil Twilight: 6:52 PM GMT-5
Forecast for Nassau Airport, Bahamas:
(Forecast based on TAF for )
1100 AM GMT-5 MON SEP 01 2014
  
MORNING AFTERNOON EVENING OVERNIGHT
Rain
Showers
ZoneCast:
Dated: 1100 AM GMT-5 MON SEP 01 2014
Morning...A 30 percent chance of rain showers.

Afternoon...A percent chance of .

Evening...A percent chance of .

Overnight...A percent chance of .

Original Encoded TAF:
Dated: 1100 AM GMT-5 MON SEP 01 2014
MYNN 010900Z 0112/0212 09006KT 9999 FEW018 0115/0117 SCT022 
     PROB30 0116/0119 6000 SHRA BKN018